sensor_id;sensor_type;location;lat;lon;timestamp;temperature;humidity
37158;DHT22;23050;51.776;22.638;2023-04-24T00:00:54;10.50;97.00
37158;DHT22;23050;51.776;22.638;2023-04-24T00:03:24;10.40;97.60
37158;DHT22;23050;51.776;22.638;2023-04-24T00:05:50;10.40;98.00
37158;DHT22;23050;51.776;22.638;2023-04-24T00:08:16;10.30;99.00
37158;DHT22;23050;51.776;22.638;2023-04-24T00:10:42;10.20;99.50
37158;DHT22;23050;51.776;22.638;2023-04-24T00:13:07;10.10;99.90
37158;DHT22;23050;51.776;22.638;2023-04-24T00:15:33;10.10;99.90
37158;DHT22;23050;51.776;22.638;2023-04-24T00:17:58;10.10;99.90
37158;DHT22;23050;51.776;22.638;2023-04-24T00:20:24;10.10;99.90
37158;DHT22;23050;51.776;22.638;2023-04-24T00:22:49;10.00;99.90
37158;DHT22;23050;51.776;22.638;2023-04-24T00:25:14;9.90;99.90
37158;DHT22;23050;51.776;22.638;2023-04-24T00:27:40;9.90;99.90
37158;DHT22;23050;51.776;22.638;2023-04-24T00:30:06;10.00;99.90
37158;DHT22;23050;51.776;22.638;2023-04-24T00:32:31;9.90;99.90
37158;DHT22;23050;51.776;22.638;2023-04-24T00:34:57;9.90;99.90
37158;DHT22;23050;51.776;22.638;2023-04-24T00:37:22;9.90;99.90
37158;DHT22;23050;51.776;22.638;2023-04-24T00:39:48;9.80;99.90
37158;DHT22;23050;51.776;22.638;2023-04-24T00:42:13;9.80;99.90
37158;DHT22;23050;51.776;22.638;2023-04-24T00:44:39;9.80;99.90
37158;DHT22;23050;51.776;22.638;2023-04-24T00:47:04;9.80;99.90
37158;DHT22;23050;51.776;22.638;2023-04-24T00:49:30;9.80;99.90
37158;DHT22;23050;51.776;22.638;2023-04-24T00:51:55;9.80;99.90
37158;DHT22;23050;51.776;22.638;2023-04-24T00:54:22;9.70;99.90
37158;DHT22;23050;51.776;22.638;2023-04-24T00:56:47;9.60;99.90
37158;DHT22;23050;51.776;22.638;2023-04-24T00:59:14;9.60;99.90
37158;DHT22;23050;51.776;22.638;2023-04-24T01:01:41;9.60;99.90
37158;DHT22;23050;51.776;22.638;2023-04-24T01:04:07;9.60;99.90
37158;DHT22;23050;51.776;22.638;2023-04-24T01:06:33;9.60;99.90
37158;DHT22;23050;51.776;22.638;2023-04-24T01:08:59;9.60;99.90
37158;DHT22;23050;51.776;22.638;2023-04-24T01:11:25;9.70;99.90
37158;DHT22;23050;51.776;22.638;2023-04-24T01:13:52;9.80;99.90
37158;DHT22;23050;51.776;22.638;2023-04-24T01:16:18;9.70;99.90
37158;DHT22;23050;51.776;22.638;2023-04-24T01:18:46;9.70;99.90
37158;DHT22;23050;51.776;22.638;2023-04-24T01:21:13;9.80;99.90
37158;DHT22;23050;51.776;22.638;2023-04-24T01:23:38;9.80;99.90
37158;DHT22;23050;51.776;22.638;2023-04-24T01:26:04;9.80;99.90
37158;DHT22;23050;51.776;22.638;2023-04-24T01:28:29;9.80;99.90
37158;DHT22;23050;51.776;22.638;2023-04-24T01:30:55;9.80;99.90
37158;DHT22;23050;51.776;22.638;2023-04-24T01:33:21;9.70;99.90
37158;DHT22;23050;51.776;22.638;2023-04-24T01:35:47;9.70;99.90
37158;DHT22;23050;51.776;22.638;2023-04-24T01:38:13;9.70;99.90
37158;DHT22;23050;51.776;22.638;2023-04-24T01:40:38;9.60;99.90
37158;DHT22;23050;51.776;22.638;2023-04-24T01:43:03;9.70;99.90
37158;DHT22;23050;51.776;22.638;2023-04-24T01:45:29;9.70;99.90
37158;DHT22;23050;51.776;22.638;2023-04-24T01:47:54;9.60;99.90
37158;DHT22;23050;51.776;22.638;2023-04-24T01:50:20;9.60;99.90
37158;DHT22;23050;51.776;22.638;2023-04-24T01:52:46;9.60;99.90
37158;DHT22;23050;51.776;22.638;2023-04-24T01:55:11;9.50;99.90
37158;DHT22;23050;51.776;22.638;2023-04-24T01:57:37;9.40;99.90
37158;DHT22;23050;51.776;22.638;2023-04-24T02:00:03;9.30;99.90
37158;DHT22;23050;51.776;22.638;2023-04-24T02:02:30;9.30;99.90
37158;DHT22;23050;51.776;22.638;2023-04-24T02:04:55;9.30;99.90
37158;DHT22;23050;51.776;22.638;2023-04-24T02:07:21;9.20;99.90
37158;DHT22;23050;51.776;22.638;2023-04-24T02:09:46;9.10;99.90
37158;DHT22;23050;51.776;22.638;2023-04-24T02:12:12;9.20;99.90
37158;DHT22;23050;51.776;22.638;2023-04-24T02:14:38;9.10;99.90
37158;DHT22;23050;51.776;22.638;2023-04-24T02:17:03;9.20;99.90
37158;DHT22;23050;51.776;22.638;2023-04-24T02:19:30;9.10;99.90
37158;DHT22;23050;51.776;22.638;2023-04-24T02:21:55;9.10;99.90
37158;DHT22;23050;51.776;22.638;2023-04-24T02:24:21;9.10;99.90
37158;DHT22;23050;51.776;22.638;2023-04-24T02:26:46;9.10;99.90
37158;DHT22;23050;51.776;22.638;2023-04-24T02:29:12;9.20;99.90
37158;DHT22;23050;51.776;22.638;2023-04-24T02:31:37;9.10;99.90
37158;DHT22;23050;51.776;22.638;2023-04-24T02:34:03;9.00;99.90
37158;DHT22;23050;51.776;22.638;2023-04-24T02:36:28;8.90;99.90
37158;DHT22;23050;51.776;22.638;2023-04-24T02:38:54;8.90;99.90
37158;DHT22;23050;51.776;22.638;2023-04-24T02:41:19;8.80;99.90
37158;DHT22;23050;51.776;22.638;2023-04-24T02:43:45;8.80;99.90
37158;DHT22;23050;51.776;22.638;2023-04-24T02:46:10;8.70;99.90
37158;DHT22;23050;51.776;22.638;2023-04-24T02:48:36;8.70;99.90
37158;DHT22;23050;51.776;22.638;2023-04-24T02:51:01;8.60;99.90
37158;DHT22;23050;51.776;22.638;2023-04-24T02:53:28;8.50;99.90
37158;DHT22;23050;51.776;22.638;2023-04-24T02:55:56;8.50;99.90
37158;DHT22;23050;51.776;22.638;2023-04-24T02:58:21;8.40;99.90
37158;DHT22;23050;51.776;22.638;2023-04-24T03:00:47;8.50;99.90
37158;DHT22;23050;51.776;22.638;2023-04-24T03:03:12;8.40;99.90
37158;DHT22;23050;51.776;22.638;2023-04-24T03:05:38;8.40;99.90
37158;DHT22;23050;51.776;22.638;2023-04-24T03:08:04;8.40;99.90
37158;DHT22;23050;51.776;22.638;2023-04-24T03:10:30;8.30;99.90
37158;DHT22;23050;51.776;22.638;2023-04-24T03:12:55;8.30;99.90
37158;DHT22;23050;51.776;22.638;2023-04-24T03:15:21;8.30;99.90
37158;DHT22;23050;51.776;22.638;2023-04-24T03:17:46;8.30;99.90
37158;DHT22;23050;51.776;22.638;2023-04-24T03:20:11;8.30;99.90
37158;DHT22;23050;51.776;22.638;2023-04-24T03:22:37;8.20;99.90
37158;DHT22;23050;51.776;22.638;2023-04-24T03:25:02;8.20;99.90
37158;DHT22;23050;51.776;22.638;2023-04-24T03:27:28;8.10;99.90
37158;DHT22;23050;51.776;22.638;2023-04-24T03:29:54;8.10;99.90
37158;DHT22;23050;51.776;22.638;2023-04-24T03:32:21;8.10;99.90
37158;DHT22;23050;51.776;22.638;2023-04-24T03:34:47;8.10;99.90
37158;DHT22;23050;51.776;22.638;2023-04-24T03:37:13;8.10;99.90
37158;DHT22;23050;51.776;22.638;2023-04-24T03:39:38;8.10;99.90
37158;DHT22;23050;51.776;22.638;2023-04-24T03:42:04;8.20;99.90
37158;DHT22;23050;51.776;22.638;2023-04-24T03:44:29;8.20;99.90
37158;DHT22;23050;51.776;22.638;2023-04-24T03:46:55;8.20;99.90
37158;DHT22;23050;51.776;22.638;2023-04-24T03:49:20;8.30;99.90
37158;DHT22;23050;51.776;22.638;2023-04-24T03:51:47;8.30;99.90
37158;DHT22;23050;51.776;22.638;2023-04-24T03:54:12;8.40;99.90
37158;DHT22;23050;51.776;22.638;2023-04-24T03:56:38;8.40;99.90
37158;DHT22;23050;51.776;22.638;2023-04-24T03:59:04;8.50;99.90
37158;DHT22;23050;51.776;22.638;2023-04-24T04:01:29;8.70;99.90
37158;DHT22;23050;51.776;22.638;2023-04-24T04:03:55;8.70;99.90
37158;DHT22;23050;51.776;22.638;2023-04-24T04:06:21;8.80;99.90
37158;DHT22;23050;51.776;22.638;2023-04-24T04:08:47;8.90;99.90
37158;DHT22;23050;51.776;22.638;2023-04-24T04:11:12;9.00;99.90
37158;DHT22;23050;51.776;22.638;2023-04-24T04:13:38;9.10;99.90
37158;DHT22;23050;51.776;22.638;2023-04-24T04:16:04;9.20;99.90
37158;DHT22;23050;51.776;22.638;2023-04-24T04:18:29;9.30;99.90
37158;DHT22;23050;51.776;22.638;2023-04-24T04:20:55;9.40;99.90
37158;DHT22;23050;51.776;22.638;2023-04-24T04:23:22;9.50;99.90
37158;DHT22;23050;51.776;22.638;2023-04-24T04:25:47;9.50;99.90
37158;DHT22;23050;51.776;22.638;2023-04-24T04:28:13;9.60;99.90
37158;DHT22;23050;51.776;22.638;2023-04-24T04:30:38;9.80;99.90
37158;DHT22;23050;51.776;22.638;2023-04-24T04:33:05;9.90;99.90
37158;DHT22;23050;51.776;22.638;2023-04-24T04:35:30;9.90;99.90
37158;DHT22;23050;51.776;22.638;2023-04-24T04:37:56;10.00;99.90
37158;DHT22;23050;51.776;22.638;2023-04-24T04:40:24;10.10;99.90
37158;DHT22;23050;51.776;22.638;2023-04-24T04:42:50;10.40;99.90
37158;DHT22;23050;51.776;22.638;2023-04-24T04:45:18;11.10;99.20
37158;DHT22;23050;51.776;22.638;2023-04-24T04:47:43;11.90;90.90
37158;DHT22;23050;51.776;22.638;2023-04-24T04:50:09;12.10;79.50
37158;DHT22;23050;51.776;22.638;2023-04-24T04:52:35;11.80;79.00
37158;DHT22;23050;51.776;22.638;2023-04-24T04:55:01;11.60;88.80
37158;DHT22;23050;51.776;22.638;2023-04-24T04:57:27;11.90;82.20
37158;DHT22;23050;51.776;22.638;2023-04-24T04:59:52;12.40;68.60
37158;DHT22;23050;51.776;22.638;2023-04-24T05:02:20;12.40;62.50
37158;DHT22;23050;51.776;22.638;2023-04-24T05:04:49;12.00;70.10
37158;DHT22;23050;51.776;22.638;2023-04-24T05:07:14;11.80;78.30
37158;DHT22;23050;51.776;22.638;2023-04-24T05:09:40;12.00;73.60
37158;DHT22;23050;51.776;22.638;2023-04-24T05:12:05;12.30;66.10
37158;DHT22;23050;51.776;22.638;2023-04-24T05:14:31;12.60;46.80
37158;DHT22;23050;51.776;22.638;2023-04-24T05:16:57;13.10;27.60
37158;DHT22;23050;51.776;22.638;2023-04-24T05:19:22;13.80;1.00
37158;DHT22;23050;51.776;22.638;2023-04-24T05:21:48;14.00;1.00
37158;DHT22;23050;51.776;22.638;2023-04-24T05:24:13;14.30;1.00
37158;DHT22;23050;51.776;22.638;2023-04-24T05:26:39;14.60;1.00
37158;DHT22;23050;51.776;22.638;2023-04-24T05:29:04;14.60;1.00
37158;DHT22;23050;51.776;22.638;2023-04-24T05:31:30;15.20;1.00
37158;DHT22;23050;51.776;22.638;2023-04-24T05:33:56;15.20;1.00
37158;DHT22;23050;51.776;22.638;2023-04-24T05:36:21;15.00;1.00
37158;DHT22;23050;51.776;22.638;2023-04-24T05:38:46;15.20;1.00
37158;DHT22;23050;51.776;22.638;2023-04-24T05:41:12;15.20;1.00
37158;DHT22;23050;51.776;22.638;2023-04-24T05:43:37;15.30;1.00
37158;DHT22;23050;51.776;22.638;2023-04-24T05:46:03;15.40;1.00
37158;DHT22;23050;51.776;22.638;2023-04-24T05:48:28;15.80;1.00
37158;DHT22;23050;51.776;22.638;2023-04-24T05:50:54;16.10;1.00
37158;DHT22;23050;51.776;22.638;2023-04-24T05:53:19;15.90;1.00
37158;DHT22;23050;51.776;22.638;2023-04-24T05:55:45;15.90;1.00
37158;DHT22;23050;51.776;22.638;2023-04-24T05:58:11;16.40;1.00
37158;DHT22;23050;51.776;22.638;2023-04-24T06:00:36;17.00;1.00
37158;DHT22;23050;51.776;22.638;2023-04-24T06:03:02;17.70;1.00
37158;DHT22;23050;51.776;22.638;2023-04-24T06:05:30;17.40;1.00
37158;DHT22;23050;51.776;22.638;2023-04-24T06:07:55;17.30;1.00
37158;DHT22;23050;51.776;22.638;2023-04-24T06:10:21;17.20;1.00
37158;DHT22;23050;51.776;22.638;2023-04-24T06:12:46;17.00;1.00
37158;DHT22;23050;51.776;22.638;2023-04-24T06:15:12;16.70;1.00
37158;DHT22;23050;51.776;22.638;2023-04-24T06:17:38;16.60;1.00
37158;DHT22;23050;51.776;22.638;2023-04-24T06:20:03;16.90;1.00
37158;DHT22;23050;51.776;22.638;2023-04-24T06:22:30;16.90;1.00
37158;DHT22;23050;51.776;22.638;2023-04-24T06:24:56;16.90;1.00
37158;DHT22;23050;51.776;22.638;2023-04-24T06:27:21;16.60;1.00
37158;DHT22;23050;51.776;22.638;2023-04-24T06:29:47;17.10;1.00
37158;DHT22;23050;51.776;22.638;2023-04-24T06:32:20;17.40;1.00
37158;DHT22;23050;51.776;22.638;2023-04-24T06:34:45;17.60;1.00
37158;DHT22;23050;51.776;22.638;2023-04-24T06:37:11;17.80;1.00
37158;DHT22;23050;51.776;22.638;2023-04-24T06:39:36;18.10;1.00
37158;DHT22;23050;51.776;22.638;2023-04-24T06:42:02;18.30;1.00
37158;DHT22;23050;51.776;22.638;2023-04-24T06:44:27;17.90;1.00
37158;DHT22;23050;51.776;22.638;2023-04-24T06:46:52;18.40;1.00
37158;DHT22;23050;51.776;22.638;2023-04-24T06:49:18;18.70;1.00
37158;DHT22;23050;51.776;22.638;2023-04-24T06:51:43;18.40;1.00
37158;DHT22;23050;51.776;22.638;2023-04-24T06:54:09;18.50;1.00
37158;DHT22;23050;51.776;22.638;2023-04-24T06:56:35;18.20;1.00
37158;DHT22;23050;51.776;22.638;2023-04-24T06:59:01;18.60;1.00
37158;DHT22;23050;51.776;22.638;2023-04-24T07:01:26;18.70;1.00
37158;DHT22;23050;51.776;22.638;2023-04-24T07:03:52;18.80;1.00
37158;DHT22;23050;51.776;22.638;2023-04-24T07:06:17;19.30;1.00
37158;DHT22;23050;51.776;22.638;2023-04-24T07:08:46;19.30;1.00
37158;DHT22;23050;51.776;22.638;2023-04-24T07:11:12;19.30;1.00
37158;DHT22;23050;51.776;22.638;2023-04-24T07:13:38;19.40;1.00
37158;DHT22;23050;51.776;22.638;2023-04-24T07:16:07;19.30;1.00
37158;DHT22;23050;51.776;22.638;2023-04-24T07:18:32;19.40;1.00
37158;DHT22;23050;51.776;22.638;2023-04-24T07:20:58;19.60;1.00
37158;DHT22;23050;51.776;22.638;2023-04-24T07:23:23;19.40;1.00
37158;DHT22;23050;51.776;22.638;2023-04-24T07:25:49;19.80;1.00
37158;DHT22;23050;51.776;22.638;2023-04-24T07:28:14;20.00;1.00
37158;DHT22;23050;51.776;22.638;2023-04-24T07:30:40;20.20;1.00
37158;DHT22;23050;51.776;22.638;2023-04-24T07:33:06;20.50;1.00
37158;DHT22;23050;51.776;22.638;2023-04-24T07:35:32;21.30;1.00
37158;DHT22;23050;51.776;22.638;2023-04-24T07:37:58;21.50;1.00
37158;DHT22;23050;51.776;22.638;2023-04-24T07:40:23;21.20;1.00
37158;DHT22;23050;51.776;22.638;2023-04-24T07:42:49;21.30;1.00
37158;DHT22;23050;51.776;22.638;2023-04-24T07:45:14;21.00;1.00
37158;DHT22;23050;51.776;22.638;2023-04-24T07:47:43;20.80;1.00
37158;DHT22;23050;51.776;22.638;2023-04-24T07:50:10;20.90;1.00
37158;DHT22;23050;51.776;22.638;2023-04-24T07:52:36;21.60;1.00
37158;DHT22;23050;51.776;22.638;2023-04-24T07:55:01;21.70;1.00
37158;DHT22;23050;51.776;22.638;2023-04-24T07:57:27;21.80;1.00
37158;DHT22;23050;51.776;22.638;2023-04-24T07:59:53;21.90;1.00
37158;DHT22;23050;51.776;22.638;2023-04-24T08:02:18;21.70;1.00
37158;DHT22;23050;51.776;22.638;2023-04-24T08:04:44;22.10;1.00
37158;DHT22;23050;51.776;22.638;2023-04-24T08:07:10;21.80;1.00
37158;DHT22;23050;51.776;22.638;2023-04-24T08:09:38;21.50;1.00
37158;DHT22;23050;51.776;22.638;2023-04-24T08:12:03;21.70;1.00
37158;DHT22;23050;51.776;22.638;2023-04-24T08:14:29;21.60;1.00
37158;DHT22;23050;51.776;22.638;2023-04-24T08:16:54;22.00;1.00
37158;DHT22;23050;51.776;22.638;2023-04-24T08:19:21;21.50;1.00
37158;DHT22;23050;51.776;22.638;2023-04-24T08:21:47;21.70;1.00
37158;DHT22;23050;51.776;22.638;2023-04-24T08:24:12;21.50;1.00
37158;DHT22;23050;51.776;22.638;2023-04-24T08:26:38;21.20;1.00
37158;DHT22;23050;51.776;22.638;2023-04-24T08:29:04;21.50;1.00
37158;DHT22;23050;51.776;22.638;2023-04-24T08:31:29;21.80;1.00
37158;DHT22;23050;51.776;22.638;2023-04-24T08:33:55;22.30;1.00
37158;DHT22;23050;51.776;22.638;2023-04-24T08:36:21;22.60;1.00
37158;DHT22;23050;51.776;22.638;2023-04-24T08:38:46;22.80;1.00
37158;DHT22;23050;51.776;22.638;2023-04-24T08:41:12;22.20;1.00
37158;DHT22;23050;51.776;22.638;2023-04-24T08:43:39;22.20;1.00
37158;DHT22;23050;51.776;22.638;2023-04-24T08:46:05;22.30;1.00
37158;DHT22;23050;51.776;22.638;2023-04-24T08:48:31;22.80;1.00
37158;DHT22;23050;51.776;22.638;2023-04-24T08:50:57;23.50;1.00
37158;DHT22;23050;51.776;22.638;2023-04-24T08:53:23;23.60;1.00
37158;DHT22;23050;51.776;22.638;2023-04-24T08:55:49;23.80;1.00
37158;DHT22;23050;51.776;22.638;2023-04-24T08:58:16;23.80;1.00
37158;DHT22;23050;51.776;22.638;2023-04-24T09:00:43;23.40;1.00
37158;DHT22;23050;51.776;22.638;2023-04-24T09:03:15;22.80;1.00
37158;DHT22;23050;51.776;22.638;2023-04-24T09:05:42;22.30;1.00
37158;DHT22;23050;51.776;22.638;2023-04-24T09:08:10;23.10;1.00
37158;DHT22;23050;51.776;22.638;2023-04-24T09:10:39;23.30;1.00
37158;DHT22;23050;51.776;22.638;2023-04-24T09:13:04;23.30;1.00
37158;DHT22;23050;51.776;22.638;2023-04-24T09:15:30;23.10;1.00
37158;DHT22;23050;51.776;22.638;2023-04-24T09:17:55;23.10;1.00
37158;DHT22;23050;51.776;22.638;2023-04-24T09:20:21;23.00;1.00
37158;DHT22;23050;51.776;22.638;2023-04-24T09:22:47;22.90;1.00
37158;DHT22;23050;51.776;22.638;2023-04-24T09:25:12;22.70;1.00
37158;DHT22;23050;51.776;22.638;2023-04-24T09:27:41;22.30;1.00
37158;DHT22;23050;51.776;22.638;2023-04-24T09:30:07;22.80;1.00
37158;DHT22;23050;51.776;22.638;2023-04-24T09:32:33;23.00;1.00
37158;DHT22;23050;51.776;22.638;2023-04-24T09:35:06;22.90;1.00
37158;DHT22;23050;51.776;22.638;2023-04-24T09:37:36;23.00;1.00
37158;DHT22;23050;51.776;22.638;2023-04-24T09:40:23;22.90;1.00
37158;DHT22;23050;51.776;22.638;2023-04-24T09:42:51;23.50;1.00
37158;DHT22;23050;51.776;22.638;2023-04-24T09:45:17;23.50;1.00
37158;DHT22;23050;51.776;22.638;2023-04-24T09:47:42;23.20;1.00
37158;DHT22;23050;51.776;22.638;2023-04-24T09:50:09;23.50;1.00
37158;DHT22;23050;51.776;22.638;2023-04-24T09:52:34;23.40;1.00
37158;DHT22;23050;51.776;22.638;2023-04-24T09:55:00;22.90;1.00
37158;DHT22;23050;51.776;22.638;2023-04-24T09:57:25;22.90;1.00
37158;DHT22;23050;51.776;22.638;2023-04-24T09:59:53;22.70;1.00
37158;DHT22;23050;51.776;22.638;2023-04-24T10:02:19;22.70;1.00
37158;DHT22;23050;51.776;22.638;2023-04-24T10:04:53;22.80;1.00
37158;DHT22;23050;51.776;22.638;2023-04-24T10:07:20;23.10;1.00
37158;DHT22;23050;51.776;22.638;2023-04-24T10:09:46;23.60;1.00
37158;DHT22;23050;51.776;22.638;2023-04-24T10:12:11;23.50;1.00
37158;DHT22;23050;51.776;22.638;2023-04-24T10:14:38;23.20;1.00
37158;DHT22;23050;51.776;22.638;2023-04-24T10:17:03;23.20;1.00
37158;DHT22;23050;51.776;22.638;2023-04-24T10:19:29;23.70;1.00
37158;DHT22;23050;51.776;22.638;2023-04-24T10:21:55;23.60;1.00
37158;DHT22;23050;51.776;22.638;2023-04-24T10:24:21;23.20;1.00
37158;DHT22;23050;51.776;22.638;2023-04-24T10:26:46;22.80;1.00
37158;DHT22;23050;51.776;22.638;2023-04-24T10:29:15;23.00;1.00
37158;DHT22;23050;51.776;22.638;2023-04-24T10:31:40;23.10;1.00
37158;DHT22;23050;51.776;22.638;2023-04-24T10:34:07;23.30;1.00
37158;DHT22;23050;51.776;22.638;2023-04-24T10:36:33;23.40;1.00
37158;DHT22;23050;51.776;22.638;2023-04-24T10:39:02;23.50;1.00
37158;DHT22;23050;51.776;22.638;2023-04-24T10:41:29;23.10;1.00
37158;DHT22;23050;51.776;22.638;2023-04-24T10:44:12;23.40;1.00
37158;DHT22;23050;51.776;22.638;2023-04-24T10:46:39;23.70;1.00
37158;DHT22;23050;51.776;22.638;2023-04-24T10:49:05;23.50;1.00
37158;DHT22;23050;51.776;22.638;2023-04-24T10:51:50;23.40;1.00
37158;DHT22;23050;51.776;22.638;2023-04-24T10:59:50;23.10;1.00
37158;DHT22;23050;51.776;22.638;2023-04-24T11:02:17;23.70;1.00
37158;DHT22;23050;51.776;22.638;2023-04-24T11:04:42;23.70;1.00
37158;DHT22;23050;51.776;22.638;2023-04-24T11:07:08;23.70;1.00
37158;DHT22;23050;51.776;22.638;2023-04-24T11:09:34;23.30;1.00
37158;DHT22;23050;51.776;22.638;2023-04-24T11:12:05;23.10;1.00
37158;DHT22;23050;51.776;22.638;2023-04-24T11:17:31;23.30;1.00
37158;DHT22;23050;51.776;22.638;2023-04-24T11:20:17;23.00;1.00
37158;DHT22;23050;51.776;22.638;2023-04-24T11:22:42;22.90;1.00
37158;DHT22;23050;51.776;22.638;2023-04-24T11:25:08;23.00;1.00
37158;DHT22;23050;51.776;22.638;2023-04-24T11:30:05;23.60;1.00
37158;DHT22;23050;51.776;22.638;2023-04-24T11:32:38;23.50;1.00
37158;DHT22;23050;51.776;22.638;2023-04-24T11:37:39;23.30;1.00
37158;DHT22;23050;51.776;22.638;2023-04-24T11:40:06;23.50;1.00
37158;DHT22;23050;51.776;22.638;2023-04-24T11:42:35;23.20;1.00
37158;DHT22;23050;51.776;22.638;2023-04-24T11:45:01;23.60;1.00
37158;DHT22;23050;51.776;22.638;2023-04-24T11:47:30;24.20;1.00
37158;DHT22;23050;51.776;22.638;2023-04-24T11:49:57;24.00;1.00
37158;DHT22;23050;51.776;22.638;2023-04-24T11:52:23;23.60;1.00
37158;DHT22;23050;51.776;22.638;2023-04-24T11:54:49;23.70;1.00
37158;DHT22;23050;51.776;22.638;2023-04-24T11:57:15;23.80;1.00
37158;DHT22;23050;51.776;22.638;2023-04-24T11:59:41;24.30;1.00
37158;DHT22;23050;51.776;22.638;2023-04-24T12:02:06;23.50;1.00
37158;DHT22;23050;51.776;22.638;2023-04-24T12:04:38;23.10;1.00
37158;DHT22;23050;51.776;22.638;2023-04-24T12:07:04;23.10;1.00
37158;DHT22;23050;51.776;22.638;2023-04-24T12:09:45;23.00;1.00
37158;DHT22;23050;51.776;22.638;2023-04-24T12:12:15;23.00;1.00
37158;DHT22;23050;51.776;22.638;2023-04-24T12:14:46;23.00;1.00
37158;DHT22;23050;51.776;22.638;2023-04-24T12:17:12;23.40;1.00
37158;DHT22;23050;51.776;22.638;2023-04-24T12:19:37;23.20;1.00
37158;DHT22;23050;51.776;22.638;2023-04-24T12:22:04;23.40;1.00
37158;DHT22;23050;51.776;22.638;2023-04-24T12:24:30;23.20;1.00
37158;DHT22;23050;51.776;22.638;2023-04-24T12:26:56;23.00;1.00
37158;DHT22;23050;51.776;22.638;2023-04-24T12:29:22;23.00;1.00
37158;DHT22;23050;51.776;22.638;2023-04-24T12:31:48;23.00;1.00
37158;DHT22;23050;51.776;22.638;2023-04-24T12:34:20;22.90;1.00
37158;DHT22;23050;51.776;22.638;2023-04-24T12:36:46;22.70;1.00
37158;DHT22;23050;51.776;22.638;2023-04-24T12:39:18;22.20;1.00
37158;DHT22;23050;51.776;22.638;2023-04-24T12:41:56;22.50;1.00
37158;DHT22;23050;51.776;22.638;2023-04-24T12:44:30;22.50;1.00
37158;DHT22;23050;51.776;22.638;2023-04-24T12:46:56;22.00;1.00
37158;DHT22;23050;51.776;22.638;2023-04-24T12:49:21;22.00;1.00
37158;DHT22;23050;51.776;22.638;2023-04-24T12:51:47;22.40;1.00
37158;DHT22;23050;51.776;22.638;2023-04-24T12:54:12;22.80;1.00
37158;DHT22;23050;51.776;22.638;2023-04-24T12:56:38;23.00;1.00
37158;DHT22;23050;51.776;22.638;2023-04-24T12:59:04;23.00;1.00
37158;DHT22;23050;51.776;22.638;2023-04-24T13:01:30;23.40;1.00
37158;DHT22;23050;51.776;22.638;2023-04-24T13:03:56;23.60;1.00
37158;DHT22;23050;51.776;22.638;2023-04-24T13:06:21;23.90;1.00
37158;DHT22;23050;51.776;22.638;2023-04-24T13:08:46;23.60;1.00
37158;DHT22;23050;51.776;22.638;2023-04-24T13:11:13;23.20;1.00
37158;DHT22;23050;51.776;22.638;2023-04-24T13:13:39;23.30;1.00
37158;DHT22;23050;51.776;22.638;2023-04-24T13:16:05;23.40;1.00
37158;DHT22;23050;51.776;22.638;2023-04-24T13:18:30;23.20;1.00
37158;DHT22;23050;51.776;22.638;2023-04-24T13:20:56;23.60;1.00
37158;DHT22;23050;51.776;22.638;2023-04-24T13:23:21;23.50;1.00
37158;DHT22;23050;51.776;22.638;2023-04-24T13:25:48;24.00;1.00
37158;DHT22;23050;51.776;22.638;2023-04-24T13:28:13;23.60;1.00
37158;DHT22;23050;51.776;22.638;2023-04-24T13:30:39;23.40;1.00
37158;DHT22;23050;51.776;22.638;2023-04-24T13:33:04;23.50;1.00
37158;DHT22;23050;51.776;22.638;2023-04-24T13:35:30;24.00;1.00
37158;DHT22;23050;51.776;22.638;2023-04-24T13:37:57;23.50;1.00
37158;DHT22;23050;51.776;22.638;2023-04-24T13:40:22;23.10;1.00
37158;DHT22;23050;51.776;22.638;2023-04-24T13:42:48;22.80;1.00
37158;DHT22;23050;51.776;22.638;2023-04-24T13:45:13;22.50;1.00
37158;DHT22;23050;51.776;22.638;2023-04-24T13:47:39;22.70;1.00
37158;DHT22;23050;51.776;22.638;2023-04-24T13:50:07;22.90;1.00
37158;DHT22;23050;51.776;22.638;2023-04-24T13:52:33;23.20;1.00
37158;DHT22;23050;51.776;22.638;2023-04-24T13:54:58;23.60;1.00
37158;DHT22;23050;51.776;22.638;2023-04-24T13:57:24;23.70;1.00
37158;DHT22;23050;51.776;22.638;2023-04-24T13:59:49;23.80;1.00
37158;DHT22;23050;51.776;22.638;2023-04-24T14:02:15;23.40;1.00
37158;DHT22;23050;51.776;22.638;2023-04-24T14:04:40;22.80;1.00
37158;DHT22;23050;51.776;22.638;2023-04-24T14:07:06;22.50;1.00
37158;DHT22;23050;51.776;22.638;2023-04-24T14:09:33;22.80;1.00
37158;DHT22;23050;51.776;22.638;2023-04-24T14:11:58;23.10;1.00
37158;DHT22;23050;51.776;22.638;2023-04-24T14:14:24;22.90;1.00
37158;DHT22;23050;51.776;22.638;2023-04-24T14:16:49;22.90;1.00
37158;DHT22;23050;51.776;22.638;2023-04-24T14:19:15;23.20;1.00
37158;DHT22;23050;51.776;22.638;2023-04-24T14:21:40;23.50;1.00
37158;DHT22;23050;51.776;22.638;2023-04-24T14:24:06;23.60;1.00
37158;DHT22;23050;51.776;22.638;2023-04-24T14:26:31;23.50;1.00
37158;DHT22;23050;51.776;22.638;2023-04-24T14:28:57;23.50;1.00
37158;DHT22;23050;51.776;22.638;2023-04-24T14:31:24;23.20;1.00
37158;DHT22;23050;51.776;22.638;2023-04-24T14:33:49;22.80;1.00
37158;DHT22;23050;51.776;22.638;2023-04-24T14:36:15;22.30;1.00
37158;DHT22;23050;51.776;22.638;2023-04-24T14:38:40;22.20;1.00
37158;DHT22;23050;51.776;22.638;2023-04-24T14:41:06;22.30;1.00
37158;DHT22;23050;51.776;22.638;2023-04-24T14:43:34;22.20;1.00
37158;DHT22;23050;51.776;22.638;2023-04-24T14:46:00;22.40;1.00
37158;DHT22;23050;51.776;22.638;2023-04-24T14:48:26;22.00;1.00
37158;DHT22;23050;51.776;22.638;2023-04-24T14:50:51;22.00;1.00
37158;DHT22;23050;51.776;22.638;2023-04-24T14:53:17;21.80;1.00
37158;DHT22;23050;51.776;22.638;2023-04-24T14:55:42;21.60;1.00
37158;DHT22;23050;51.776;22.638;2023-04-24T14:58:07;21.40;1.00
37158;DHT22;23050;51.776;22.638;2023-04-24T15:00:33;21.30;1.00
37158;DHT22;23050;51.776;22.638;2023-04-24T15:03:00;21.10;1.00
37158;DHT22;23050;51.776;22.638;2023-04-24T15:05:26;21.30;1.00
37158;DHT22;23050;51.776;22.638;2023-04-24T15:07:51;21.50;1.00
37158;DHT22;23050;51.776;22.638;2023-04-24T15:10:17;21.40;1.00
37158;DHT22;23050;51.776;22.638;2023-04-24T15:12:43;21.40;1.00
37158;DHT22;23050;51.776;22.638;2023-04-24T15:15:08;21.30;1.00
37158;DHT22;23050;51.776;22.638;2023-04-24T15:17:34;21.20;1.00
37158;DHT22;23050;51.776;22.638;2023-04-24T15:20:00;21.20;1.00
37158;DHT22;23050;51.776;22.638;2023-04-24T15:22:26;21.10;1.00
37158;DHT22;23050;51.776;22.638;2023-04-24T15:24:51;20.90;1.00
37158;DHT22;23050;51.776;22.638;2023-04-24T15:27:17;20.70;1.00
37158;DHT22;23050;51.776;22.638;2023-04-24T15:29:42;20.70;1.00
37158;DHT22;23050;51.776;22.638;2023-04-24T15:32:08;20.70;1.00
37158;DHT22;23050;51.776;22.638;2023-04-24T15:34:33;20.70;1.00
37158;DHT22;23050;51.776;22.638;2023-04-24T15:37:00;20.60;1.00